Hovedside
METAR-TAF:

METAR-TAF

Lufthavner :

Sogndal, Norge

Sogndal lufthamn

breddegrad: 61-09N, lengdegrad: 007-08E, høyde over havet: 49 m

Gjeldene værobservasjon

Denne rapporten ble laget for 50 minutter siden, klokken 13:50 UTC
Vind 9 kt fra Nord-nordøst
Temperatur -4°C
Luftfuktighet 74%
Trykk 991 hPa
Sikt: 7000 m
Få skyer i en høyde av 500 ft
Spredte skyer i en høyde av 2000 ft
Brutte skyer i en høyde av 3500 ft
lette snøbyger

METAR: ENSG 221350Z 02009KT 9999 7000W -SHSN FEW005 SCT020 BKN035 M04/M08 Q0991 RMK WIND 3806FT 11029KT

Tid: 15:40 (14:40 UTC)


TAF: fraværende

Værobservasjoner og værvarsel for over 4000 flyplasser (METAR- og TAF-rapporter).

Tilgjengelige stasjoner er representert av de røde og gule prikkene på kartet.

Hold musepekeren over prikken for å se navnet på stasjonen.

Klikk så for å se værobservasjoner og -varsler.

For å forandre kartet kan du klikke på den grønne knappen med svart kryss for å zoome inn, på den grønne knappen med strek for å zoome ut, eller på de grønne pilene for å se tilstøtende kart.


METAR-TAF: